sensor_id;sensor_type;location;lat;lon;timestamp;P1;durP1;ratioP1;P2;durP2;ratioP2
79019;SDS011;72857;44.740;37.770;2023-11-19T00:00:12;10.25;;;6.18;;
79019;SDS011;72857;44.740;37.770;2023-11-19T00:01:15;9.70;;;6.30;;
79019;SDS011;72857;44.740;37.770;2023-11-19T00:02:16;8.75;;;5.78;;
79019;SDS011;72857;44.740;37.770;2023-11-19T00:03:19;10.30;;;5.90;;
79019;SDS011;72857;44.740;37.770;2023-11-19T00:04:21;8.82;;;5.72;;
79019;SDS011;72857;44.740;37.770;2023-11-19T00:05:22;8.07;;;5.55;;
79019;SDS011;72857;44.740;37.770;2023-11-19T00:06:23;11.05;;;5.53;;
79019;SDS011;72857;44.740;37.770;2023-11-19T00:07:26;8.10;;;4.95;;
79019;SDS011;72857;44.740;37.770;2023-11-19T00:08:27;9.43;;;5.43;;
79019;SDS011;72857;44.740;37.770;2023-11-19T00:09:29;11.40;;;5.93;;
79019;SDS011;72857;44.740;37.770;2023-11-19T00:10:30;9.65;;;5.50;;
79019;SDS011;72857;44.740;37.770;2023-11-19T00:11:32;9.52;;;5.68;;
79019;SDS011;72857;44.740;37.770;2023-11-19T00:12:33;10.40;;;5.65;;
79019;SDS011;72857;44.740;37.770;2023-11-19T00:13:34;11.38;;;5.40;;
79019;SDS011;72857;44.740;37.770;2023-11-19T00:14:36;11.90;;;6.80;;
79019;SDS011;72857;44.740;37.770;2023-11-19T00:15:37;10.82;;;5.72;;
79019;SDS011;72857;44.740;37.770;2023-11-19T00:16:38;9.20;;;5.75;;
79019;SDS011;72857;44.740;37.770;2023-11-19T00:17:40;8.68;;;5.65;;
79019;SDS011;72857;44.740;37.770;2023-11-19T00:18:45;10.48;;;5.50;;
79019;SDS011;72857;44.740;37.770;2023-11-19T00:19:46;7.30;;;4.20;;
79019;SDS011;72857;44.740;37.770;2023-11-19T00:20:47;8.05;;;5.03;;
79019;SDS011;72857;44.740;37.770;2023-11-19T00:21:49;9.18;;;5.93;;
79019;SDS011;72857;44.740;37.770;2023-11-19T00:22:50;11.88;;;5.70;;
79019;SDS011;72857;44.740;37.770;2023-11-19T00:23:54;8.75;;;5.60;;
79019;SDS011;72857;44.740;37.770;2023-11-19T00:24:55;9.93;;;5.43;;
79019;SDS011;72857;44.740;37.770;2023-11-19T00:25:57;8.82;;;5.22;;
79019;SDS011;72857;44.740;37.770;2023-11-19T00:26:58;8.02;;;5.70;;
79019;SDS011;72857;44.740;37.770;2023-11-19T00:28:00;9.18;;;5.63;;
79019;SDS011;72857;44.740;37.770;2023-11-19T00:29:01;10.88;;;6.20;;
79019;SDS011;72857;44.740;37.770;2023-11-19T00:30:04;8.93;;;5.22;;
79019;SDS011;72857;44.740;37.770;2023-11-19T00:31:06;10.52;;;4.88;;
79019;SDS011;72857;44.740;37.770;2023-11-19T00:32:08;9.32;;;5.03;;
79019;SDS011;72857;44.740;37.770;2023-11-19T00:33:09;9.18;;;5.05;;
79019;SDS011;72857;44.740;37.770;2023-11-19T00:34:10;9.38;;;5.75;;
79019;SDS011;72857;44.740;37.770;2023-11-19T00:35:12;9.05;;;5.32;;
79019;SDS011;72857;44.740;37.770;2023-11-19T00:36:16;7.90;;;4.97;;
79019;SDS011;72857;44.740;37.770;2023-11-19T00:37:17;10.57;;;6.32;;
79019;SDS011;72857;44.740;37.770;2023-11-19T00:38:18;13.20;;;5.63;;
79019;SDS011;72857;44.740;37.770;2023-11-19T00:39:20;11.05;;;6.30;;
79019;SDS011;72857;44.740;37.770;2023-11-19T00:40:22;9.05;;;5.53;;
79019;SDS011;72857;44.740;37.770;2023-11-19T00:41:23;8.23;;;5.20;;
79019;SDS011;72857;44.740;37.770;2023-11-19T00:42:26;8.15;;;5.13;;
79019;SDS011;72857;44.740;37.770;2023-11-19T00:43:28;10.00;;;5.43;;
79019;SDS011;72857;44.740;37.770;2023-11-19T00:44:29;8.07;;;4.95;;
79019;SDS011;72857;44.740;37.770;2023-11-19T00:45:30;8.35;;;5.00;;
79019;SDS011;72857;44.740;37.770;2023-11-19T00:46:32;11.02;;;5.22;;
79019;SDS011;72857;44.740;37.770;2023-11-19T00:47:33;9.40;;;5.35;;
79019;SDS011;72857;44.740;37.770;2023-11-19T00:48:35;8.27;;;4.85;;
79019;SDS011;72857;44.740;37.770;2023-11-19T00:49:37;10.40;;;5.78;;
79019;SDS011;72857;44.740;37.770;2023-11-19T00:50:38;10.85;;;5.50;;
79019;SDS011;72857;44.740;37.770;2023-11-19T00:51:43;9.02;;;5.18;;
79019;SDS011;72857;44.740;37.770;2023-11-19T00:52:46;10.18;;;5.13;;
79019;SDS011;72857;44.740;37.770;2023-11-19T00:53:48;8.20;;;4.70;;
79019;SDS011;72857;44.740;37.770;2023-11-19T00:54:49;12.00;;;4.68;;
79019;SDS011;72857;44.740;37.770;2023-11-19T00:55:50;8.32;;;5.22;;
79019;SDS011;72857;44.740;37.770;2023-11-19T00:56:52;11.50;;;5.95;;
79019;SDS011;72857;44.740;37.770;2023-11-19T00:57:53;8.52;;;5.47;;
79019;SDS011;72857;44.740;37.770;2023-11-19T00:58:57;10.32;;;5.55;;
79019;SDS011;72857;44.740;37.770;2023-11-19T00:59:58;9.70;;;6.28;;
79019;SDS011;72857;44.740;37.770;2023-11-19T01:01:00;10.90;;;5.93;;
79019;SDS011;72857;44.740;37.770;2023-11-19T01:02:01;9.50;;;5.72;;
79019;SDS011;72857;44.740;37.770;2023-11-19T01:03:04;8.60;;;5.53;;
79019;SDS011;72857;44.740;37.770;2023-11-19T01:04:06;10.73;;;6.25;;
79019;SDS011;72857;44.740;37.770;2023-11-19T01:05:07;8.35;;;4.85;;
79019;SDS011;72857;44.740;37.770;2023-11-19T01:06:10;11.15;;;5.63;;
79019;SDS011;72857;44.740;37.770;2023-11-19T01:07:11;8.90;;;5.35;;
79019;SDS011;72857;44.740;37.770;2023-11-19T01:08:13;9.60;;;5.80;;
79019;SDS011;72857;44.740;37.770;2023-11-19T01:09:15;10.00;;;5.32;;
79019;SDS011;72857;44.740;37.770;2023-11-19T01:10:16;8.25;;;5.32;;
79019;SDS011;72857;44.740;37.770;2023-11-19T01:11:20;7.95;;;4.50;;
79019;SDS011;72857;44.740;37.770;2023-11-19T01:12:24;8.48;;;5.18;;
79019;SDS011;72857;44.740;37.770;2023-11-19T01:13:26;10.52;;;5.10;;
79019;SDS011;72857;44.740;37.770;2023-11-19T01:14:27;9.20;;;5.28;;
79019;SDS011;72857;44.740;37.770;2023-11-19T01:15:29;8.80;;;5.50;;
79019;SDS011;72857;44.740;37.770;2023-11-19T01:16:30;8.93;;;4.93;;
79019;SDS011;72857;44.740;37.770;2023-11-19T01:17:32;9.73;;;4.63;;
79019;SDS011;72857;44.740;37.770;2023-11-19T01:18:33;7.40;;;4.82;;
79019;SDS011;72857;44.740;37.770;2023-11-19T01:19:34;7.55;;;4.53;;
79019;SDS011;72857;44.740;37.770;2023-11-19T01:20:36;10.70;;;4.85;;
79019;SDS011;72857;44.740;37.770;2023-11-19T01:21:37;9.50;;;5.55;;
79019;SDS011;72857;44.740;37.770;2023-11-19T01:22:39;7.50;;;4.43;;
79019;SDS011;72857;44.740;37.770;2023-11-19T01:23:41;9.25;;;4.80;;
79019;SDS011;72857;44.740;37.770;2023-11-19T01:24:44;8.15;;;4.78;;
79019;SDS011;72857;44.740;37.770;2023-11-19T01:25:45;7.68;;;4.53;;
79019;SDS011;72857;44.740;37.770;2023-11-19T01:26:46;7.18;;;4.20;;
79019;SDS011;72857;44.740;37.770;2023-11-19T01:27:48;7.40;;;4.05;;
79019;SDS011;72857;44.740;37.770;2023-11-19T01:28:50;9.05;;;4.43;;
79019;SDS011;72857;44.740;37.770;2023-11-19T01:29:53;7.40;;;4.57;;
79019;SDS011;72857;44.740;37.770;2023-11-19T01:30:56;6.95;;;4.50;;
79019;SDS011;72857;44.740;37.770;2023-11-19T01:31:58;7.88;;;4.15;;
79019;SDS011;72857;44.740;37.770;2023-11-19T01:32:59;6.20;;;4.13;;
79019;SDS011;72857;44.740;37.770;2023-11-19T01:34:01;10.55;;;5.00;;
79019;SDS011;72857;44.740;37.770;2023-11-19T01:35:03;7.55;;;4.65;;
79019;SDS011;72857;44.740;37.770;2023-11-19T01:36:05;8.45;;;5.75;;
79019;SDS011;72857;44.740;37.770;2023-11-19T01:37:06;8.00;;;4.82;;
79019;SDS011;72857;44.740;37.770;2023-11-19T01:38:10;9.00;;;5.22;;
79019;SDS011;72857;44.740;37.770;2023-11-19T01:39:11;7.68;;;4.78;;
79019;SDS011;72857;44.740;37.770;2023-11-19T01:40:13;9.98;;;5.97;;
79019;SDS011;72857;44.740;37.770;2023-11-19T01:41:14;8.43;;;4.82;;
79019;SDS011;72857;44.740;37.770;2023-11-19T01:42:15;8.30;;;5.03;;
79019;SDS011;72857;44.740;37.770;2023-11-19T01:43:33;11.52;;;5.75;;
79019;SDS011;72857;44.740;37.770;2023-11-19T01:44:34;9.07;;;6.07;;
79019;SDS011;72857;44.740;37.770;2023-11-19T01:45:36;8.57;;;6.03;;
79019;SDS011;72857;44.740;37.770;2023-11-19T01:46:43;8.07;;;5.22;;
79019;SDS011;72857;44.740;37.770;2023-11-19T01:47:48;8.68;;;6.18;;
79019;SDS011;72857;44.740;37.770;2023-11-19T01:48:49;10.23;;;6.47;;
79019;SDS011;72857;44.740;37.770;2023-11-19T01:49:51;9.55;;;6.25;;
79019;SDS011;72857;44.740;37.770;2023-11-19T01:50:52;10.40;;;6.70;;
79019;SDS011;72857;44.740;37.770;2023-11-19T01:51:54;10.27;;;6.05;;
79019;SDS011;72857;44.740;37.770;2023-11-19T01:52:55;10.50;;;6.32;;
79019;SDS011;72857;44.740;37.770;2023-11-19T01:54:01;11.40;;;6.82;;
79019;SDS011;72857;44.740;37.770;2023-11-19T01:55:03;12.55;;;6.40;;
79019;SDS011;72857;44.740;37.770;2023-11-19T01:56:08;9.23;;;6.20;;
79019;SDS011;72857;44.740;37.770;2023-11-19T01:57:10;10.20;;;6.57;;
79019;SDS011;72857;44.740;37.770;2023-11-19T01:58:13;10.95;;;6.25;;
79019;SDS011;72857;44.740;37.770;2023-11-19T01:59:15;9.57;;;6.00;;
79019;SDS011;72857;44.740;37.770;2023-11-19T02:00:17;9.18;;;6.00;;
79019;SDS011;72857;44.740;37.770;2023-11-19T02:01:19;9.48;;;5.75;;
79019;SDS011;72857;44.740;37.770;2023-11-19T02:02:21;9.75;;;6.20;;
79019;SDS011;72857;44.740;37.770;2023-11-19T02:03:23;10.15;;;5.82;;
79019;SDS011;72857;44.740;37.770;2023-11-19T02:04:27;9.02;;;5.65;;
79019;SDS011;72857;44.740;37.770;2023-11-19T02:05:28;10.18;;;6.20;;
79019;SDS011;72857;44.740;37.770;2023-11-19T02:06:29;9.50;;;6.32;;
79019;SDS011;72857;44.740;37.770;2023-11-19T02:07:34;11.73;;;6.95;;
79019;SDS011;72857;44.740;37.770;2023-11-19T02:08:35;13.10;;;6.70;;
79019;SDS011;72857;44.740;37.770;2023-11-19T02:09:36;9.25;;;5.68;;
79019;SDS011;72857;44.740;37.770;2023-11-19T02:10:38;19.40;;;7.18;;
79019;SDS011;72857;44.740;37.770;2023-11-19T02:11:40;10.10;;;6.60;;
79019;SDS011;72857;44.740;37.770;2023-11-19T02:12:41;11.27;;;6.63;;
79019;SDS011;72857;44.740;37.770;2023-11-19T02:13:46;11.45;;;6.60;;
79019;SDS011;72857;44.740;37.770;2023-11-19T02:14:47;13.65;;;7.47;;
79019;SDS011;72857;44.740;37.770;2023-11-19T02:15:49;10.80;;;6.57;;
79019;SDS011;72857;44.740;37.770;2023-11-19T02:16:50;10.45;;;6.72;;
79019;SDS011;72857;44.740;37.770;2023-11-19T02:17:51;12.02;;;6.18;;
79019;SDS011;72857;44.740;37.770;2023-11-19T02:18:53;12.77;;;7.53;;
79019;SDS011;72857;44.740;37.770;2023-11-19T02:19:54;9.02;;;6.22;;
79019;SDS011;72857;44.740;37.770;2023-11-19T02:20:59;9.73;;;6.30;;
79019;SDS011;72857;44.740;37.770;2023-11-19T02:22:00;9.50;;;6.40;;
79019;SDS011;72857;44.740;37.770;2023-11-19T02:23:01;9.73;;;6.50;;
79019;SDS011;72857;44.740;37.770;2023-11-19T02:24:04;10.32;;;6.80;;
79019;SDS011;72857;44.740;37.770;2023-11-19T02:25:12;10.45;;;6.55;;
79019;SDS011;72857;44.740;37.770;2023-11-19T02:26:34;10.07;;;5.97;;
79019;SDS011;72857;44.740;37.770;2023-11-19T02:27:54;9.13;;;6.30;;
79019;SDS011;72857;44.740;37.770;2023-11-19T02:29:00;11.40;;;6.93;;
79019;SDS011;72857;44.740;37.770;2023-11-19T02:30:01;10.23;;;7.10;;
79019;SDS011;72857;44.740;37.770;2023-11-19T02:31:06;11.48;;;7.25;;
79019;SDS011;72857;44.740;37.770;2023-11-19T02:32:11;10.95;;;6.35;;
79019;SDS011;72857;44.740;37.770;2023-11-19T02:33:14;10.68;;;5.88;;
79019;SDS011;72857;44.740;37.770;2023-11-19T02:34:15;10.15;;;6.57;;
79019;SDS011;72857;44.740;37.770;2023-11-19T02:35:17;12.75;;;6.90;;
79019;SDS011;72857;44.740;37.770;2023-11-19T02:36:18;10.15;;;7.03;;
79019;SDS011;72857;44.740;37.770;2023-11-19T02:37:19;10.90;;;7.50;;
79019;SDS011;72857;44.740;37.770;2023-11-19T02:38:21;10.45;;;6.43;;
79019;SDS011;72857;44.740;37.770;2023-11-19T02:39:22;9.85;;;6.85;;
79019;SDS011;72857;44.740;37.770;2023-11-19T02:40:24;11.13;;;6.72;;
79019;SDS011;72857;44.740;37.770;2023-11-19T02:41:25;9.73;;;6.60;;
79019;SDS011;72857;44.740;37.770;2023-11-19T02:42:26;11.55;;;7.32;;
79019;SDS011;72857;44.740;37.770;2023-11-19T02:43:28;9.63;;;6.85;;
79019;SDS011;72857;44.740;37.770;2023-11-19T02:44:32;10.30;;;5.93;;
79019;SDS011;72857;44.740;37.770;2023-11-19T02:45:34;13.93;;;6.97;;
79019;SDS011;72857;44.740;37.770;2023-11-19T02:46:35;12.13;;;7.45;;
79019;SDS011;72857;44.740;37.770;2023-11-19T02:47:36;8.55;;;5.85;;
79019;SDS011;72857;44.740;37.770;2023-11-19T02:48:38;10.68;;;6.38;;
79019;SDS011;72857;44.740;37.770;2023-11-19T02:49:40;9.88;;;6.72;;
79019;SDS011;72857;44.740;37.770;2023-11-19T02:50:43;10.35;;;6.88;;
79019;SDS011;72857;44.740;37.770;2023-11-19T02:51:45;11.05;;;6.57;;
79019;SDS011;72857;44.740;37.770;2023-11-19T02:52:46;9.93;;;6.65;;
79019;SDS011;72857;44.740;37.770;2023-11-19T02:53:48;10.38;;;6.05;;
79019;SDS011;72857;44.740;37.770;2023-11-19T02:54:49;11.07;;;6.35;;
79019;SDS011;72857;44.740;37.770;2023-11-19T02:55:52;10.52;;;6.25;;
79019;SDS011;72857;44.740;37.770;2023-11-19T02:56:53;11.10;;;6.75;;
79019;SDS011;72857;44.740;37.770;2023-11-19T02:58:00;10.43;;;6.55;;
79019;SDS011;72857;44.740;37.770;2023-11-19T02:59:01;9.48;;;5.72;;
79019;SDS011;72857;44.740;37.770;2023-11-19T03:00:16;8.93;;;6.20;;
79019;SDS011;72857;44.740;37.770;2023-11-19T03:01:22;9.77;;;6.75;;
79019;SDS011;72857;44.740;37.770;2023-11-19T03:02:34;9.80;;;6.25;;
79019;SDS011;72857;44.740;37.770;2023-11-19T03:04:50;10.93;;;5.95;;
79019;SDS011;72857;44.740;37.770;2023-11-19T03:05:51;12.32;;;7.53;;
79019;SDS011;72857;44.740;37.770;2023-11-19T03:06:52;9.63;;;6.68;;
79019;SDS011;72857;44.740;37.770;2023-11-19T03:07:54;10.35;;;6.93;;
79019;SDS011;72857;44.740;37.770;2023-11-19T03:08:55;11.90;;;7.25;;
79019;SDS011;72857;44.740;37.770;2023-11-19T03:09:57;10.35;;;7.20;;
79019;SDS011;72857;44.740;37.770;2023-11-19T03:10:58;11.57;;;7.57;;
79019;SDS011;72857;44.740;37.770;2023-11-19T03:11:59;12.65;;;7.70;;
79019;SDS011;72857;44.740;37.770;2023-11-19T03:13:01;11.15;;;7.40;;
79019;SDS011;72857;44.740;37.770;2023-11-19T03:14:03;11.60;;;7.15;;
79019;SDS011;72857;44.740;37.770;2023-11-19T03:15:04;12.95;;;7.18;;
79019;SDS011;72857;44.740;37.770;2023-11-19T03:16:06;11.18;;;7.20;;
79019;SDS011;72857;44.740;37.770;2023-11-19T03:17:08;12.75;;;7.10;;
79019;SDS011;72857;44.740;37.770;2023-11-19T03:18:10;10.90;;;7.25;;
79019;SDS011;72857;44.740;37.770;2023-11-19T03:19:11;10.38;;;7.15;;
79019;SDS011;72857;44.740;37.770;2023-11-19T03:20:13;10.07;;;6.97;;
79019;SDS011;72857;44.740;37.770;2023-11-19T03:21:18;9.23;;;6.32;;
79019;SDS011;72857;44.740;37.770;2023-11-19T03:22:19;10.98;;;6.45;;
79019;SDS011;72857;44.740;37.770;2023-11-19T03:23:21;10.77;;;6.75;;
79019;SDS011;72857;44.740;37.770;2023-11-19T03:24:23;11.48;;;7.47;;
79019;SDS011;72857;44.740;37.770;2023-11-19T03:25:25;10.70;;;6.47;;
79019;SDS011;72857;44.740;37.770;2023-11-19T03:26:37;9.75;;;6.30;;
79019;SDS011;72857;44.740;37.770;2023-11-19T03:27:39;11.52;;;7.20;;
79019;SDS011;72857;44.740;37.770;2023-11-19T03:28:42;11.02;;;7.55;;
79019;SDS011;72857;44.740;37.770;2023-11-19T03:29:43;11.68;;;8.15;;
79019;SDS011;72857;44.740;37.770;2023-11-19T03:30:45;12.15;;;7.63;;
79019;SDS011;72857;44.740;37.770;2023-11-19T03:31:46;11.63;;;6.38;;
79019;SDS011;72857;44.740;37.770;2023-11-19T03:32:47;10.95;;;7.35;;
79019;SDS011;72857;44.740;37.770;2023-11-19T03:33:50;10.52;;;7.03;;
79019;SDS011;72857;44.740;37.770;2023-11-19T03:34:51;10.95;;;6.85;;
79019;SDS011;72857;44.740;37.770;2023-11-19T03:35:52;10.70;;;7.07;;
79019;SDS011;72857;44.740;37.770;2023-11-19T03:36:54;11.68;;;7.75;;
79019;SDS011;72857;44.740;37.770;2023-11-19T03:37:56;12.10;;;7.93;;
79019;SDS011;72857;44.740;37.770;2023-11-19T03:38:58;16.67;;;7.25;;
79019;SDS011;72857;44.740;37.770;2023-11-19T03:40:00;10.40;;;6.68;;
79019;SDS011;72857;44.740;37.770;2023-11-19T03:41:10;11.13;;;7.13;;
79019;SDS011;72857;44.740;37.770;2023-11-19T03:42:14;11.30;;;7.35;;
79019;SDS011;72857;44.740;37.770;2023-11-19T03:43:16;11.30;;;7.00;;
79019;SDS011;72857;44.740;37.770;2023-11-19T03:44:17;11.10;;;6.93;;
79019;SDS011;72857;44.740;37.770;2023-11-19T03:45:19;11.45;;;7.30;;
79019;SDS011;72857;44.740;37.770;2023-11-19T03:46:21;10.85;;;7.28;;
79019;SDS011;72857;44.740;37.770;2023-11-19T03:47:23;12.23;;;8.18;;
79019;SDS011;72857;44.740;37.770;2023-11-19T03:48:25;12.55;;;8.35;;
79019;SDS011;72857;44.740;37.770;2023-11-19T03:49:26;15.77;;;8.55;;
79019;SDS011;72857;44.740;37.770;2023-11-19T03:50:27;13.40;;;6.53;;
79019;SDS011;72857;44.740;37.770;2023-11-19T03:51:29;10.80;;;7.32;;
79019;SDS011;72857;44.740;37.770;2023-11-19T03:52:30;9.90;;;6.35;;
79019;SDS011;72857;44.740;37.770;2023-11-19T03:53:31;10.95;;;6.60;;
79019;SDS011;72857;44.740;37.770;2023-11-19T03:54:33;13.50;;;8.13;;
79019;SDS011;72857;44.740;37.770;2023-11-19T03:55:34;13.60;;;7.05;;
79019;SDS011;72857;44.740;37.770;2023-11-19T03:56:35;11.52;;;7.57;;
79019;SDS011;72857;44.740;37.770;2023-11-19T03:57:37;9.27;;;6.32;;
79019;SDS011;72857;44.740;37.770;2023-11-19T03:58:38;11.65;;;7.13;;
79019;SDS011;72857;44.740;37.770;2023-11-19T03:59:40;11.02;;;6.72;;
79019;SDS011;72857;44.740;37.770;2023-11-19T04:00:41;11.98;;;6.72;;
79019;SDS011;72857;44.740;37.770;2023-11-19T04:01:43;12.02;;;7.82;;
79019;SDS011;72857;44.740;37.770;2023-11-19T04:02:44;11.68;;;8.35;;
79019;SDS011;72857;44.740;37.770;2023-11-19T04:03:47;11.18;;;7.05;;
79019;SDS011;72857;44.740;37.770;2023-11-19T04:04:49;11.77;;;7.53;;
79019;SDS011;72857;44.740;37.770;2023-11-19T04:05:50;9.57;;;6.05;;
79019;SDS011;72857;44.740;37.770;2023-11-19T04:06:51;11.35;;;7.63;;
79019;SDS011;72857;44.740;37.770;2023-11-19T04:07:52;9.48;;;6.95;;
79019;SDS011;72857;44.740;37.770;2023-11-19T04:08:54;10.88;;;7.15;;
79019;SDS011;72857;44.740;37.770;2023-11-19T04:09:55;11.05;;;7.78;;
79019;SDS011;72857;44.740;37.770;2023-11-19T04:10:56;15.55;;;7.00;;
79019;SDS011;72857;44.740;37.770;2023-11-19T04:11:58;10.63;;;7.07;;
79019;SDS011;72857;44.740;37.770;2023-11-19T04:12:59;11.30;;;6.80;;
79019;SDS011;72857;44.740;37.770;2023-11-19T04:14:01;9.88;;;6.57;;
79019;SDS011;72857;44.740;37.770;2023-11-19T04:15:03;10.90;;;7.03;;
79019;SDS011;72857;44.740;37.770;2023-11-19T04:16:05;10.95;;;6.75;;
79019;SDS011;72857;44.740;37.770;2023-11-19T04:17:07;10.32;;;6.97;;
79019;SDS011;72857;44.740;37.770;2023-11-19T04:18:09;10.25;;;6.50;;
79019;SDS011;72857;44.740;37.770;2023-11-19T04:19:10;12.30;;;7.13;;
79019;SDS011;72857;44.740;37.770;2023-11-19T04:20:12;10.15;;;6.13;;
79019;SDS011;72857;44.740;37.770;2023-11-19T04:21:14;9.80;;;6.65;;
79019;SDS011;72857;44.740;37.770;2023-11-19T04:22:16;10.93;;;7.43;;
79019;SDS011;72857;44.740;37.770;2023-11-19T04:23:18;8.43;;;6.03;;
79019;SDS011;72857;44.740;37.770;2023-11-19T04:24:19;9.15;;;5.90;;
79019;SDS011;72857;44.740;37.770;2023-11-19T04:25:20;9.05;;;6.10;;
79019;SDS011;72857;44.740;37.770;2023-11-19T04:26:24;9.65;;;6.03;;
79019;SDS011;72857;44.740;37.770;2023-11-19T04:27:25;9.75;;;6.35;;
79019;SDS011;72857;44.740;37.770;2023-11-19T04:28:27;10.80;;;6.43;;
79019;SDS011;72857;44.740;37.770;2023-11-19T04:29:28;10.43;;;6.65;;
79019;SDS011;72857;44.740;37.770;2023-11-19T04:30:31;9.52;;;6.03;;
79019;SDS011;72857;44.740;37.770;2023-11-19T04:31:32;8.23;;;5.47;;
79019;SDS011;72857;44.740;37.770;2023-11-19T04:32:34;10.05;;;6.03;;
79019;SDS011;72857;44.740;37.770;2023-11-19T04:33:35;11.38;;;7.45;;
79019;SDS011;72857;44.740;37.770;2023-11-19T04:34:36;8.57;;;5.80;;
79019;SDS011;72857;44.740;37.770;2023-11-19T04:35:38;9.07;;;5.45;;
79019;SDS011;72857;44.740;37.770;2023-11-19T04:36:39;9.73;;;6.72;;
79019;SDS011;72857;44.740;37.770;2023-11-19T04:37:41;8.38;;;6.03;;
79019;SDS011;72857;44.740;37.770;2023-11-19T04:38:42;9.43;;;6.40;;
79019;SDS011;72857;44.740;37.770;2023-11-19T04:39:44;9.35;;;6.22;;
79019;SDS011;72857;44.740;37.770;2023-11-19T04:40:46;11.02;;;6.15;;
79019;SDS011;72857;44.740;37.770;2023-11-19T04:41:48;9.48;;;6.15;;
79019;SDS011;72857;44.740;37.770;2023-11-19T04:42:50;10.02;;;6.43;;
79019;SDS011;72857;44.740;37.770;2023-11-19T04:43:52;12.40;;;6.50;;
79019;SDS011;72857;44.740;37.770;2023-11-19T04:44:53;10.35;;;5.55;;
79019;SDS011;72857;44.740;37.770;2023-11-19T04:45:55;9.95;;;6.43;;
79019;SDS011;72857;44.740;37.770;2023-11-19T04:46:56;10.13;;;5.85;;
79019;SDS011;72857;44.740;37.770;2023-11-19T04:47:58;8.73;;;5.90;;
79019;SDS011;72857;44.740;37.770;2023-11-19T04:48:59;8.93;;;5.85;;
79019;SDS011;72857;44.740;37.770;2023-11-19T04:50:00;10.43;;;6.00;;
79019;SDS011;72857;44.740;37.770;2023-11-19T04:51:04;11.45;;;6.45;;
79019;SDS011;72857;44.740;37.770;2023-11-19T04:52:06;9.38;;;5.90;;
79019;SDS011;72857;44.740;37.770;2023-11-19T04:53:07;9.63;;;5.90;;
79019;SDS011;72857;44.740;37.770;2023-11-19T04:54:09;10.38;;;6.43;;
79019;SDS011;72857;44.740;37.770;2023-11-19T04:55:12;8.50;;;5.65;;
79019;SDS011;72857;44.740;37.770;2023-11-19T04:57:17;9.88;;;5.97;;
79019;SDS011;72857;44.740;37.770;2023-11-19T04:58:18;8.52;;;5.47;;
79019;SDS011;72857;44.740;37.770;2023-11-19T04:59:19;10.15;;;5.97;;
79019;SDS011;72857;44.740;37.770;2023-11-19T05:00:21;9.48;;;5.60;;
79019;SDS011;72857;44.740;37.770;2023-11-19T05:01:22;8.45;;;5.22;;
79019;SDS011;72857;44.740;37.770;2023-11-19T05:02:23;9.05;;;5.20;;
79019;SDS011;72857;44.740;37.770;2023-11-19T05:03:25;9.02;;;5.82;;
79019;SDS011;72857;44.740;37.770;2023-11-19T05:04:26;9.18;;;5.43;;
79019;SDS011;72857;44.740;37.770;2023-11-19T05:05:27;11.02;;;6.20;;
79019;SDS011;72857;44.740;37.770;2023-11-19T05:06:30;8.27;;;5.75;;
79019;SDS011;72857;44.740;37.770;2023-11-19T05:07:32;8.77;;;5.22;;
79019;SDS011;72857;44.740;37.770;2023-11-19T05:08:33;9.73;;;5.72;;
79019;SDS011;72857;44.740;37.770;2023-11-19T05:09:35;10.77;;;6.57;;
79019;SDS011;72857;44.740;37.770;2023-11-19T05:10:36;8.48;;;5.30;;
79019;SDS011;72857;44.740;37.770;2023-11-19T05:11:37;8.90;;;5.88;;
79019;SDS011;72857;44.740;37.770;2023-11-19T05:12:39;9.93;;;5.68;;
79019;SDS011;72857;44.740;37.770;2023-11-19T05:13:42;9.05;;;5.85;;
79019;SDS011;72857;44.740;37.770;2023-11-19T05:14:46;13.63;;;5.95;;
79019;SDS011;72857;44.740;37.770;2023-11-19T05:15:50;9.82;;;5.70;;
79019;SDS011;72857;44.740;37.770;2023-11-19T05:16:51;10.63;;;5.85;;
79019;SDS011;72857;44.740;37.770;2023-11-19T05:17:53;10.27;;;6.43;;
79019;SDS011;72857;44.740;37.770;2023-11-19T05:18:54;9.98;;;6.13;;
79019;SDS011;72857;44.740;37.770;2023-11-19T05:19:56;9.18;;;5.85;;
79019;SDS011;72857;44.740;37.770;2023-11-19T05:20:57;10.77;;;6.20;;
79019;SDS011;72857;44.740;37.770;2023-11-19T05:21:58;8.82;;;6.40;;
79019;SDS011;72857;44.740;37.770;2023-11-19T05:23:00;9.50;;;6.32;;
79019;SDS011;72857;44.740;37.770;2023-11-19T05:24:02;12.32;;;6.30;;
79019;SDS011;72857;44.740;37.770;2023-11-19T05:25:07;9.55;;;5.93;;
79019;SDS011;72857;44.740;37.770;2023-11-19T05:26:09;8.27;;;5.40;;
79019;SDS011;72857;44.740;37.770;2023-11-19T05:27:11;8.98;;;5.57;;
79019;SDS011;72857;44.740;37.770;2023-11-19T05:28:13;9.52;;;5.57;;
79019;SDS011;72857;44.740;37.770;2023-11-19T05:29:15;7.88;;;5.30;;
79019;SDS011;72857;44.740;37.770;2023-11-19T05:30:16;8.15;;;5.47;;
79019;SDS011;72857;44.740;37.770;2023-11-19T05:31:17;10.57;;;5.70;;
79019;SDS011;72857;44.740;37.770;2023-11-19T05:32:19;10.35;;;5.95;;
79019;SDS011;72857;44.740;37.770;2023-11-19T05:33:20;9.57;;;5.78;;
79019;SDS011;72857;44.740;37.770;2023-11-19T05:34:22;7.40;;;5.30;;
79019;SDS011;72857;44.740;37.770;2023-11-19T05:35:23;8.75;;;5.28;;
79019;SDS011;72857;44.740;37.770;2023-11-19T05:36:24;7.45;;;5.05;;
79019;SDS011;72857;44.740;37.770;2023-11-19T05:37:26;11.25;;;5.80;;
79019;SDS011;72857;44.740;37.770;2023-11-19T05:38:27;9.75;;;5.60;;
79019;SDS011;72857;44.740;37.770;2023-11-19T05:39:29;10.95;;;5.43;;
79019;SDS011;72857;44.740;37.770;2023-11-19T05:40:31;10.55;;;5.50;;
79019;SDS011;72857;44.740;37.770;2023-11-19T05:41:32;8.93;;;5.78;;
79019;SDS011;72857;44.740;37.770;2023-11-19T05:42:34;8.55;;;5.53;;
79019;SDS011;72857;44.740;37.770;2023-11-19T05:43:35;8.20;;;5.20;;
79019;SDS011;72857;44.740;37.770;2023-11-19T05:44:38;7.50;;;4.63;;
79019;SDS011;72857;44.740;37.770;2023-11-19T05:45:40;10.15;;;5.93;;
79019;SDS011;72857;44.740;37.770;2023-11-19T05:46:41;8.45;;;5.32;;
79019;SDS011;72857;44.740;37.770;2023-11-19T05:47:44;11.43;;;5.47;;
79019;SDS011;72857;44.740;37.770;2023-11-19T05:48:45;8.73;;;5.50;;
79019;SDS011;72857;44.740;37.770;2023-11-19T05:49:47;10.05;;;5.45;;
79019;SDS011;72857;44.740;37.770;2023-11-19T05:50:50;7.47;;;4.38;;
79019;SDS011;72857;44.740;37.770;2023-11-19T05:51:51;9.15;;;5.25;;
79019;SDS011;72857;44.740;37.770;2023-11-19T05:52:55;7.78;;;4.93;;
79019;SDS011;72857;44.740;37.770;2023-11-19T05:53:56;9.00;;;4.30;;
79019;SDS011;72857;44.740;37.770;2023-11-19T05:54:59;8.18;;;4.85;;
79019;SDS011;72857;44.740;37.770;2023-11-19T05:56:03;7.57;;;4.70;;
79019;SDS011;72857;44.740;37.770;2023-11-19T05:57:05;6.82;;;4.38;;
79019;SDS011;72857;44.740;37.770;2023-11-19T05:58:10;7.70;;;4.57;;
79019;SDS011;72857;44.740;37.770;2023-11-19T05:59:13;8.35;;;3.90;;
79019;SDS011;72857;44.740;37.770;2023-11-19T06:00:18;7.05;;;4.25;;
79019;SDS011;72857;44.740;37.770;2023-11-19T06:01:20;7.32;;;4.22;;
79019;SDS011;72857;44.740;37.770;2023-11-19T06:02:22;8.27;;;4.28;;
79019;SDS011;72857;44.740;37.770;2023-11-19T06:03:23;7.78;;;4.55;;
79019;SDS011;72857;44.740;37.770;2023-11-19T06:04:25;7.65;;;4.15;;
79019;SDS011;72857;44.740;37.770;2023-11-19T06:05:27;6.53;;;4.32;;
79019;SDS011;72857;44.740;37.770;2023-11-19T06:06:28;6.75;;;3.88;;
79019;SDS011;72857;44.740;37.770;2023-11-19T06:07:30;6.50;;;3.45;;
79019;SDS011;72857;44.740;37.770;2023-11-19T06:08:32;7.10;;;4.07;;